createdAt,value
2022-10-04T00:01:09.373Z,9.50
2022-10-04T00:03:40.271Z,9.03
2022-10-04T00:06:12.211Z,6.63
2022-10-04T00:08:44.655Z,8.07
2022-10-04T00:11:18.099Z,5.37
2022-10-04T00:14:13.945Z,6.17
2022-10-04T00:16:41.119Z,4.80
2022-10-04T00:19:19.788Z,6.77
2022-10-04T00:21:52.399Z,5.57
2022-10-04T00:24:23.091Z,7.47
2022-10-04T00:26:49.392Z,9.40
2022-10-04T00:29:34.473Z,9.83
2022-10-04T00:32:24.107Z,7.90
2022-10-04T00:34:51.641Z,6.97
2022-10-04T00:37:19.126Z,6.17
2022-10-04T00:39:47.128Z,11.33
2022-10-04T00:42:19.876Z,7.10
2022-10-04T00:44:53.645Z,10.80
2022-10-04T00:47:55.292Z,7.43
2022-10-04T00:50:26.123Z,8.20
2022-10-04T00:52:54.713Z,8.70
2022-10-04T00:55:26.997Z,11.87
2022-10-04T00:57:59.529Z,8.70
2022-10-04T01:00:26.342Z,10.13
2022-10-04T01:02:58.235Z,10.07
2022-10-04T01:05:26.412Z,9.27
2022-10-04T01:07:58.570Z,10.83
2022-10-04T01:10:26.900Z,5.37
2022-10-04T01:13:11.864Z,8.47
2022-10-04T01:15:48.601Z,10.30
2022-10-04T01:18:21.128Z,5.00
2022-10-04T01:20:55.383Z,10.83
2022-10-04T01:23:41.646Z,6.70
2022-10-04T01:26:26.475Z,6.73
2022-10-04T01:28:53.344Z,7.77
2022-10-04T01:31:19.771Z,6.93
2022-10-04T01:33:46.432Z,7.17
2022-10-04T01:36:12.873Z,6.23
2022-10-04T01:38:39.273Z,7.40
2022-10-04T01:41:08.017Z,6.73
2022-10-04T01:43:37.508Z,6.37
2022-10-04T01:46:07.613Z,9.37
2022-10-04T01:48:36.355Z,6.30
2022-10-04T01:51:05.857Z,6.73
2022-10-04T01:53:34.443Z,6.40
2022-10-04T01:56:05.935Z,8.93
2022-10-04T01:58:39.071Z,8.37
2022-10-04T02:01:11.289Z,8.73
2022-10-04T02:03:40.493Z,7.07
2022-10-04T02:06:08.554Z,6.53
2022-10-04T02:08:37.311Z,8.27
2022-10-04T02:11:04.831Z,8.50
2022-10-04T02:13:36.116Z,5.53
2022-10-04T02:16:03.021Z,8.30
2022-10-04T02:18:29.941Z,7.33
2022-10-04T02:20:56.533Z,7.40
2022-10-04T02:23:24.153Z,9.17
2022-10-04T02:25:51.046Z,9.80
2022-10-04T02:28:18.967Z,6.30
2022-10-04T02:31:08.475Z,9.60
2022-10-04T02:33:39.071Z,6.83
2022-10-04T02:36:08.522Z,7.87
2022-10-04T02:38:36.438Z,6.37
2022-10-04T02:41:09.801Z,6.93
2022-10-04T02:43:38.872Z,4.70
2022-10-04T02:46:07.334Z,6.07
2022-10-04T02:48:36.891Z,8.40
2022-10-04T02:51:26.628Z,5.40
2022-10-04T02:54:03.471Z,5.70
2022-10-04T02:56:30.815Z,5.80
2022-10-04T02:59:01.047Z,8.67
2022-10-04T03:01:29.083Z,7.60
2022-10-04T03:03:56.485Z,6.37
2022-10-04T03:06:26.205Z,7.70
2022-10-04T03:08:59.016Z,7.63
2022-10-04T03:11:28.005Z,5.23
2022-10-04T03:13:56.421Z,6.63
2022-10-04T03:16:23.970Z,9.30
2022-10-04T03:18:51.713Z,4.87
2022-10-04T03:21:18.891Z,7.03
2022-10-04T03:23:46.062Z,5.77
2022-10-04T03:26:19.142Z,6.10
2022-10-04T03:28:46.140Z,5.37
2022-10-04T03:31:13.894Z,6.53
2022-10-04T03:33:41.129Z,6.57
2022-10-04T03:36:12.408Z,5.57
2022-10-04T03:38:40.101Z,5.67
2022-10-04T03:41:06.852Z,5.73
2022-10-04T03:43:35.329Z,5.10
2022-10-04T03:46:02.150Z,9.87
2022-10-04T03:48:36.706Z,7.33
2022-10-04T03:51:05.005Z,6.97
2022-10-04T03:53:35.260Z,6.43
2022-10-04T03:56:04.389Z,7.50
2022-10-04T03:58:31.285Z,6.60
2022-10-04T04:01:10.007Z,6.70
2022-10-04T04:03:45.955Z,6.37
2022-10-04T04:06:15.425Z,4.60
2022-10-04T04:08:44.495Z,5.83
2022-10-04T04:11:18.836Z,5.67
2022-10-04T04:13:49.100Z,5.53
2022-10-04T04:16:15.674Z,6.43
2022-10-04T04:18:43.675Z,8.37
2022-10-04T04:21:12.886Z,5.27
2022-10-04T04:23:41.447Z,6.40
2022-10-04T04:26:17.985Z,6.27
2022-10-04T04:28:56.029Z,6.77
2022-10-04T04:31:27.982Z,6.00
2022-10-04T04:34:00.355Z,7.23
2022-10-04T04:36:31.377Z,5.90
2022-10-04T04:39:44.831Z,7.07
2022-10-04T04:42:16.460Z,6.20
2022-10-04T04:44:53.621Z,7.60
2022-10-04T04:47:23.093Z,5.97
2022-10-04T04:49:49.888Z,9.60
2022-10-04T04:52:17.863Z,7.27
2022-10-04T04:54:47.049Z,10.97
2022-10-04T04:57:17.155Z,7.57
2022-10-04T04:59:45.861Z,8.20
2022-10-04T05:02:33.122Z,7.33
2022-10-04T05:05:14.771Z,9.43
2022-10-04T05:07:43.510Z,9.27
2022-10-04T05:10:39.249Z,7.77
2022-10-04T05:13:07.763Z,10.13
2022-10-04T05:15:35.626Z,11.73
2022-10-04T05:18:20.020Z,8.47
2022-10-04T05:20:52.829Z,9.10
2022-10-04T05:23:19.214Z,7.73
2022-10-04T05:25:45.651Z,9.80
2022-10-04T05:28:15.087Z,9.13
2022-10-04T05:30:41.508Z,12.17
2022-10-04T05:33:09.084Z,10.43
2022-10-04T05:35:42.573Z,9.00
2022-10-04T05:38:18.226Z,8.23
2022-10-04T05:40:56.837Z,9.37
2022-10-04T05:43:35.719Z,8.80
2022-10-04T05:46:19.349Z,9.57
2022-10-04T05:48:47.745Z,7.13
2022-10-04T05:51:21.197Z,7.87
2022-10-04T05:53:48.371Z,10.33
2022-10-04T05:56:30.045Z,9.53
2022-10-04T05:59:15.167Z,6.57
2022-10-04T06:01:44.838Z,10.73
2022-10-04T06:04:23.577Z,10.37
2022-10-04T06:06:59.168Z,15.70
2022-10-04T06:09:28.617Z,22.47
2022-10-04T06:12:04.122Z,17.67
2022-10-04T06:14:42.956Z,15.20
2022-10-04T06:17:30.318Z,16.63
2022-10-04T06:20:03.387Z,17.53
2022-10-04T06:22:30.115Z,13.50
2022-10-04T06:25:00.197Z,16.27
2022-10-04T06:27:28.839Z,15.33
2022-10-04T06:29:56.919Z,15.00
2022-10-04T06:32:29.351Z,13.60
2022-10-04T06:34:55.782Z,16.07
2022-10-04T06:37:31.291Z,16.33
2022-10-04T06:40:15.880Z,13.47
2022-10-04T06:43:01.126Z,12.47
2022-10-04T06:45:29.468Z,10.70
2022-10-04T06:48:00.952Z,11.40
2022-10-04T06:50:27.629Z,14.13
2022-10-04T06:52:58.557Z,14.23
2022-10-04T06:55:47.123Z,13.70
2022-10-04T06:58:38.938Z,11.87
2022-10-04T07:01:17.932Z,11.33
2022-10-04T07:03:51.372Z,15.00
2022-10-04T07:06:23.177Z,18.87
2022-10-04T07:08:50.546Z,14.60
2022-10-04T07:11:19.792Z,17.20
2022-10-04T07:13:53.069Z,9.17
2022-10-04T07:16:27.567Z,7.07
2022-10-04T07:19:12.920Z,8.50
2022-10-04T07:21:49.588Z,6.90
2022-10-04T07:24:23.492Z,7.37
2022-10-04T07:26:50.573Z,10.13
2022-10-04T07:29:42.304Z,8.70
2022-10-04T07:32:14.404Z,9.17
2022-10-04T07:34:43.832Z,8.70
2022-10-04T07:37:12.704Z,9.43
2022-10-04T07:39:50.472Z,10.23
2022-10-04T07:42:26.547Z,10.33
2022-10-04T07:45:02.982Z,9.37
2022-10-04T07:47:30.255Z,10.43
2022-10-04T07:49:58.194Z,7.90
2022-10-04T07:52:43.501Z,7.93
2022-10-04T07:55:15.970Z,11.37
2022-10-04T07:57:49.311Z,6.97
2022-10-04T08:00:28.816Z,10.70
2022-10-04T08:03:04.614Z,10.17
2022-10-04T08:05:37.914Z,10.90
2022-10-04T11:43:02.993Z,3.43
2022-10-04T11:45:38.454Z,3.60
2022-10-04T11:48:11.302Z,3.87
2022-10-04T11:50:40.915Z,4.73
2022-10-04T11:53:16.536Z,3.27
2022-10-04T11:55:54.331Z,3.63
2022-10-04T11:58:28.496Z,3.73
2022-10-04T12:01:07.440Z,3.77
2022-10-04T12:03:33.818Z,3.37
2022-10-04T12:06:03.466Z,4.80
2022-10-04T12:08:48.893Z,3.90
2022-10-04T12:11:53.140Z,3.03
2022-10-04T12:14:26.388Z,4.30
2022-10-04T12:16:53.465Z,2.73
2022-10-04T12:19:30.187Z,2.90
2022-10-04T12:21:58.144Z,3.83
2022-10-04T12:24:24.557Z,3.30
2022-10-04T12:27:06.226Z,2.67
2022-10-04T12:30:02.827Z,3.80
2022-10-04T12:32:35.332Z,3.27
2022-10-04T12:35:04.701Z,2.93
2022-10-04T12:37:54.062Z,2.27
2022-10-04T12:40:26.817Z,4.10
2022-10-04T12:42:57.186Z,2.00
2022-10-04T12:45:42.298Z,2.63
2022-10-04T12:48:21.881Z,3.67
2022-10-04T12:51:00.421Z,3.83
2022-10-04T12:53:34.677Z,4.43
2022-10-04T12:56:27.138Z,2.63
2022-10-04T12:59:05.906Z,3.53
2022-10-04T13:01:41.396Z,3.73
2022-10-04T13:04:23.236Z,3.33
2022-10-04T13:07:08.718Z,2.37
2022-10-04T13:09:37.990Z,2.87
2022-10-04T13:12:04.346Z,2.63
2022-10-04T13:15:00.294Z,2.87
2022-10-04T13:17:43.218Z,3.13
2022-10-04T13:20:19.722Z,3.70
2022-10-04T13:22:56.829Z,3.13
2022-10-04T13:25:36.489Z,2.73
2022-10-04T13:28:05.694Z,3.20
2022-10-04T13:30:37.550Z,2.87
2022-10-04T13:33:03.925Z,3.40
2022-10-04T13:35:36.807Z,2.67
2022-10-04T13:38:03.376Z,4.23
2022-10-04T13:40:29.937Z,4.87
2022-10-04T13:42:56.249Z,6.80
2022-10-04T13:45:25.790Z,2.87
2022-10-04T13:47:58.182Z,6.43
2022-10-04T13:50:33.593Z,4.53
2022-10-04T13:53:21.868Z,5.57
2022-10-04T13:56:12.447Z,8.33
2022-10-04T13:58:46.677Z,8.40
2022-10-04T14:01:19.326Z,5.77
2022-10-04T14:06:25.962Z,5.63
2022-10-04T14:09:14.280Z,11.83
2022-10-04T14:12:05.536Z,6.87
2022-10-04T14:14:51.706Z,5.33
2022-10-04T14:17:26.050Z,5.57
2022-10-04T14:20:32.511Z,6.43
2022-10-04T14:23:20.186Z,5.83
2022-10-04T14:26:23.057Z,7.47
2022-10-04T14:29:07.433Z,7.10
2022-10-04T14:32:11.697Z,5.83
2022-10-04T14:34:47.550Z,4.93
2022-10-04T14:37:23.489Z,4.70
2022-10-04T14:40:14.650Z,7.97
2022-10-04T14:43:18.602Z,6.53
2022-10-04T14:46:13.527Z,5.23
2022-10-04T14:48:53.127Z,7.30
2022-10-04T14:51:46.066Z,7.37
2022-10-04T14:54:25.569Z,5.87
2022-10-04T14:57:00.975Z,5.20
2022-10-04T14:59:39.661Z,5.80
2022-10-04T15:02:32.951Z,5.33
2022-10-04T15:05:02.768Z,4.87
2022-10-04T15:08:00.642Z,2.57
2022-10-04T15:10:47.430Z,2.83
2022-10-04T15:13:58.631Z,4.53
2022-10-04T15:16:47.290Z,2.83
2022-10-04T15:19:20.053Z,3.03
2022-10-04T15:21:55.581Z,1.90
2022-10-04T15:24:27.443Z,2.10
2022-10-04T15:27:27.622Z,2.60
2022-10-04T15:30:19.034Z,3.07
2022-10-04T15:33:11.535Z,2.07
2022-10-04T15:35:41.615Z,2.03
2022-10-04T15:38:29.596Z,3.27
2022-10-04T15:41:08.107Z,3.13
2022-10-04T15:43:47.276Z,2.90
2022-10-04T15:46:26.759Z,4.03
2022-10-04T15:49:23.365Z,2.67
2022-10-04T15:52:06.473Z,3.10
2022-10-04T15:55:00.781Z,3.67
2022-10-04T15:57:45.252Z,2.07
2022-10-04T16:00:15.550Z,3.43
2022-10-04T16:02:51.415Z,2.17
2022-10-04T16:05:24.299Z,2.10
2022-10-04T16:08:17.908Z,2.30
2022-10-04T16:11:29.136Z,2.47
2022-10-04T16:14:20.011Z,2.93
2022-10-04T16:16:59.970Z,2.23
2022-10-04T16:20:08.039Z,3.57
2022-10-04T16:22:35.767Z,4.60
2022-10-04T16:25:23.965Z,3.60
2022-10-04T16:27:56.614Z,4.07
2022-10-04T16:30:35.553Z,4.93
2022-10-04T16:33:21.180Z,4.60
2022-10-04T16:36:31.934Z,6.23
2022-10-04T16:39:20.152Z,5.67
2022-10-04T16:41:58.191Z,5.37
2022-10-04T16:44:52.076Z,4.40
2022-10-04T16:47:30.897Z,4.53
2022-10-04T16:50:00.614Z,7.03
2022-10-04T16:53:01.389Z,6.73
2022-10-04T16:55:56.039Z,7.53
2022-10-04T16:58:28.658Z,9.10
2022-10-04T17:01:30.128Z,9.73
2022-10-04T17:04:19.052Z,7.33
2022-10-04T17:06:57.230Z,7.17
2022-10-04T17:09:32.276Z,10.87
2022-10-04T17:12:16.102Z,6.73
2022-10-04T17:15:27.542Z,8.43
2022-10-04T17:18:13.516Z,12.13
2022-10-04T17:20:42.754Z,9.93
2022-10-04T17:23:51.472Z,8.63
2022-10-04T17:26:43.325Z,10.20
2022-10-04T17:29:24.230Z,9.00
2022-10-04T17:32:03.152Z,11.20
2022-10-04T17:34:39.636Z,10.60
2022-10-04T17:37:28.541Z,11.07
2022-10-04T17:40:13.367Z,8.67
2022-10-04T17:43:06.937Z,11.00
2022-10-04T17:46:01.376Z,9.97
2022-10-04T17:48:50.184Z,12.37
2022-10-04T17:51:41.469Z,11.07
2022-10-04T17:54:36.834Z,18.23
2022-10-04T17:57:03.280Z,22.53
2022-10-04T17:59:41.074Z,20.97
2022-10-04T18:02:17.114Z,22.50
2022-10-04T18:04:56.650Z,18.50
2022-10-04T18:07:31.923Z,20.20
2022-10-04T18:10:04.228Z,17.97
2022-10-04T18:12:46.321Z,16.27
2022-10-04T18:15:28.681Z,16.83
2022-10-04T18:18:10.497Z,18.67
2022-10-04T18:20:45.390Z,17.70
2022-10-04T18:23:25.104Z,18.47
2022-10-04T18:25:57.527Z,18.00
2022-10-04T18:28:24.937Z,15.93
2022-10-04T18:31:12.854Z,21.03
2022-10-04T18:33:42.278Z,17.90
2022-10-04T18:36:19.118Z,13.53
2022-10-04T18:38:58.041Z,17.30
2022-10-04T18:41:44.940Z,19.40
2022-10-04T18:44:17.438Z,22.83
2022-10-04T18:46:51.187Z,16.37
2022-10-04T18:49:26.906Z,15.67
2022-10-04T18:52:11.656Z,12.93
2022-10-04T18:54:53.634Z,8.87
2022-10-04T18:57:55.408Z,14.73
2022-10-04T19:00:41.577Z,12.57
2022-10-04T19:03:31.528Z,11.23
2022-10-04T19:06:08.124Z,11.60
2022-10-04T19:09:01.428Z,8.73
2022-10-04T19:11:43.121Z,8.97
2022-10-04T19:14:17.946Z,11.23
2022-10-04T19:16:55.936Z,11.00
2022-10-04T19:19:37.735Z,15.60
2022-10-04T19:22:26.470Z,9.00
2022-10-04T19:25:24.056Z,11.27
2022-10-04T19:28:00.580Z,8.93
2022-10-04T19:30:48.266Z,11.90
2022-10-04T19:33:43.276Z,7.80
2022-10-04T19:36:31.391Z,8.80
2022-10-04T19:39:17.856Z,9.27
2022-10-04T19:41:53.287Z,10.00
2022-10-04T19:44:25.849Z,11.17
2022-10-04T19:46:59.364Z,11.27
2022-10-04T19:49:34.556Z,9.80
2022-10-04T19:52:21.967Z,8.77
2022-10-04T19:54:56.833Z,9.37
2022-10-04T19:57:36.680Z,9.63
2022-10-04T20:00:10.298Z,8.77
2022-10-04T20:02:42.614Z,7.43
2022-10-04T20:05:14.681Z,8.40
2022-10-04T20:07:48.177Z,9.47
2022-10-04T20:10:33.512Z,7.67
2022-10-04T20:13:13.538Z,9.00
2022-10-04T20:15:40.119Z,7.77
2022-10-04T20:18:32.876Z,9.87
2022-10-04T20:21:00.174Z,11.73
2022-10-04T20:23:36.883Z,12.70
2022-10-04T20:26:50.707Z,10.40
2022-10-04T20:29:38.030Z,12.60
2022-10-04T20:32:05.935Z,8.40
2022-10-04T20:34:38.571Z,8.87
2022-10-04T20:37:09.425Z,10.17
2022-10-04T20:39:42.084Z,9.33
2022-10-04T20:42:27.081Z,7.80
2022-10-04T20:45:18.261Z,7.17
2022-10-04T20:47:54.137Z,10.23
2022-10-04T20:50:33.572Z,8.30
2022-10-04T20:53:06.756Z,6.00
2022-10-04T20:55:36.629Z,7.03
2022-10-04T20:58:32.004Z,7.20
2022-10-04T21:01:06.275Z,6.83
2022-10-04T21:03:32.863Z,9.13
2022-10-04T21:06:09.776Z,10.33
2022-10-04T21:08:37.989Z,9.17
2022-10-04T21:11:07.358Z,10.40
2022-10-04T21:13:57.365Z,15.00
2022-10-04T21:16:42.637Z,10.43
2022-10-04T21:19:28.547Z,12.07
2022-10-04T21:21:55.549Z,12.83
2022-10-04T21:24:48.324Z,12.73
2022-10-04T21:27:38.000Z,10.60
2022-10-04T21:30:16.576Z,12.90
2022-10-04T21:32:43.765Z,11.13
2022-10-04T21:35:11.530Z,19.20
2022-10-04T21:37:38.678Z,9.40
2022-10-04T21:40:06.862Z,10.37
2022-10-04T21:42:33.429Z,11.33
2022-10-04T21:45:00.039Z,8.83
2022-10-04T21:47:26.567Z,8.67
2022-10-04T21:49:53.842Z,8.47
2022-10-04T21:52:20.699Z,8.80
2022-10-04T21:54:47.338Z,10.53
2022-10-04T21:57:13.976Z,8.87
2022-10-04T21:59:40.596Z,8.90
2022-10-04T22:02:07.734Z,9.10
2022-10-04T22:04:34.586Z,9.30
2022-10-04T22:07:01.213Z,8.87
2022-10-04T22:09:27.682Z,10.17
2022-10-04T22:11:54.144Z,8.60
2022-10-04T22:14:20.824Z,7.40
2022-10-04T22:16:47.461Z,9.03
2022-10-04T22:19:14.212Z,9.30
2022-10-04T22:21:40.702Z,6.87
2022-10-04T22:24:18.541Z,8.00
2022-10-04T22:26:45.568Z,6.60
2022-10-04T22:29:13.960Z,10.43
2022-10-04T22:31:44.145Z,8.47
2022-10-04T22:34:20.433Z,7.43
2022-10-04T22:36:49.634Z,10.97
2022-10-04T22:39:18.929Z,7.73
2022-10-04T22:41:48.076Z,10.13
2022-10-04T22:44:23.262Z,9.40
2022-10-04T22:46:52.931Z,9.57
2022-10-04T22:49:24.678Z,13.90
2022-10-04T22:51:53.253Z,10.53
2022-10-04T22:54:22.480Z,10.70
2022-10-04T22:56:49.549Z,10.87
2022-10-04T22:59:21.812Z,9.50
2022-10-04T23:01:48.617Z,11.40
2022-10-04T23:04:25.669Z,8.57
2022-10-04T23:06:53.338Z,9.00
2022-10-04T23:09:20.068Z,7.77
2022-10-04T23:11:46.704Z,10.47
2022-10-04T23:14:13.230Z,7.07
2022-10-04T23:16:39.936Z,8.77
2022-10-04T23:19:16.096Z,7.37
2022-10-04T23:21:45.711Z,7.47
2022-10-04T23:24:15.572Z,8.37
2022-10-04T23:26:44.067Z,5.90
2022-10-04T23:29:31.797Z,7.47
2022-10-04T23:31:58.322Z,6.67
2022-10-04T23:34:33.223Z,8.03
2022-10-04T23:36:59.987Z,7.33
2022-10-04T23:39:34.726Z,7.50
2022-10-04T23:42:28.924Z,10.43
2022-10-04T23:44:57.615Z,8.03
2022-10-04T23:47:32.856Z,8.77
2022-10-04T23:49:59.431Z,9.80
2022-10-04T23:52:35.761Z,10.90
2022-10-04T23:55:02.878Z,8.73
2022-10-04T23:57:31.077Z,8.17
2022-10-04T23:59:59.805Z,9.30
